createdAt,value
2022-09-26T07:04:41.994Z,3.97
2022-09-26T07:10:05.085Z,3.42
2022-09-26T07:15:30.876Z,2.95
2022-09-26T07:20:40.014Z,3.13
2022-09-26T07:26:03.081Z,3.53
2022-09-26T07:31:07.636Z,4.07
2022-09-26T07:36:21.205Z,4.40
2022-09-26T07:41:31.231Z,4.80
2022-09-26T07:46:53.159Z,4.65
2022-09-26T07:52:00.340Z,4.43
2022-09-26T07:57:14.925Z,4.00
2022-09-26T08:03:06.523Z,3.35
2022-09-26T08:08:17.181Z,2.42
2022-09-26T08:13:36.311Z,2.00
2022-09-26T08:18:55.554Z,2.15
2022-09-26T08:24:03.045Z,2.08
2022-09-26T08:29:28.433Z,1.77
2022-09-26T08:34:35.112Z,1.80
2022-09-26T08:40:07.357Z,1.70
2022-09-26T08:46:03.810Z,1.77
2022-09-26T08:51:29.429Z,1.50
2022-09-26T08:56:40.822Z,1.75
2022-09-26T09:01:47.014Z,1.42
2022-09-26T09:07:13.933Z,1.80
2022-09-26T09:12:31.390Z,1.45
2022-09-26T09:18:13.261Z,1.40
2022-09-26T09:23:54.301Z,1.70
2022-09-26T09:29:38.159Z,1.55
2022-09-26T09:35:15.486Z,1.20
2022-09-26T09:40:59.510Z,1.20
2022-09-26T09:46:12.476Z,0.80
2022-09-26T09:51:39.758Z,1.25
2022-09-26T09:56:54.802Z,1.40
2022-09-26T10:02:35.414Z,1.20
2022-09-26T10:07:44.834Z,1.08
2022-09-26T10:13:19.270Z,0.90
2022-09-26T10:19:05.653Z,1.23
2022-09-26T10:24:24.450Z,0.90
2022-09-26T10:29:36.914Z,1.10
2022-09-26T10:34:43.118Z,1.10
2022-09-26T10:40:11.641Z,1.10
2022-09-26T10:45:27.551Z,1.02
2022-09-26T10:51:09.522Z,1.05
2022-09-26T10:56:27.586Z,1.35
2022-09-26T11:01:33.767Z,1.20
2022-09-26T11:06:44.016Z,1.30
2022-09-26T11:12:26.297Z,1.45
2022-09-26T11:17:47.830Z,1.52
2022-09-26T11:23:02.987Z,1.60
2022-09-26T11:28:13.953Z,1.42
2022-09-26T11:44:55.531Z,1.05
2022-09-26T11:50:14.600Z,1.20
2022-09-26T11:55:55.389Z,0.90
2022-09-26T12:01:05.609Z,1.60
2022-09-26T12:06:26.267Z,1.40
2022-09-26T12:11:42.466Z,1.15
2022-09-26T12:16:52.318Z,0.90
2022-09-26T12:22:20.954Z,1.10
2022-09-26T12:27:36.044Z,1.10
2022-09-26T12:32:56.612Z,1.33
2022-09-26T12:38:21.302Z,1.45
2022-09-26T12:44:04.693Z,1.02
2022-09-26T12:49:28.651Z,1.50
2022-09-26T12:54:51.096Z,1.10
2022-09-26T13:00:20.750Z,1.70
2022-09-26T13:05:39.141Z,1.20
2022-09-26T13:11:00.058Z,1.55
2022-09-26T13:16:23.977Z,1.58
2022-09-26T13:21:44.865Z,1.50
2022-09-26T13:26:53.257Z,1.52
2022-09-26T13:32:11.182Z,1.55
2022-09-26T13:37:32.428Z,1.35
2022-09-26T13:42:43.719Z,1.30
2022-09-26T13:48:03.807Z,1.50
2022-09-26T13:53:18.346Z,1.20
2022-09-26T13:58:27.449Z,1.55
2022-09-26T14:03:42.073Z,1.50
2022-09-26T14:09:25.726Z,1.40
2022-09-26T14:14:50.787Z,1.33
2022-09-26T14:20:04.839Z,1.40
2022-09-26T14:25:47.623Z,1.10
2022-09-26T14:31:17.685Z,1.25
2022-09-26T14:36:28.960Z,1.25
2022-09-26T14:41:36.630Z,1.80
2022-09-26T14:46:44.254Z,1.40
2022-09-26T14:52:22.028Z,1.02
2022-09-26T14:57:31.715Z,1.45
2022-09-26T15:02:46.700Z,1.40
2022-09-26T15:07:55.322Z,1.35
2022-09-26T15:13:04.115Z,1.15
2022-09-26T15:18:17.901Z,1.10
2022-09-26T15:23:28.602Z,1.30
2022-09-26T15:28:35.568Z,1.40
2022-09-26T15:33:41.659Z,1.42
2022-09-26T15:38:47.535Z,1.45
2022-09-26T15:44:02.754Z,1.20
2022-09-26T15:49:21.254Z,1.27
2022-09-26T15:54:30.601Z,1.40
2022-09-26T15:59:41.134Z,1.52
2022-09-26T16:04:55.024Z,1.33
2022-09-26T16:10:03.037Z,2.00
2022-09-26T16:15:16.953Z,1.27
2022-09-26T16:20:27.351Z,1.40
2022-09-26T16:25:53.608Z,1.85
2022-09-26T16:31:15.774Z,1.60
2022-09-26T16:36:23.500Z,1.45
2022-09-26T16:42:00.499Z,1.90
2022-09-26T16:47:02.622Z,1.50
2022-09-26T16:52:30.768Z,2.30
2022-09-26T16:57:38.658Z,2.08
2022-09-26T17:02:43.111Z,1.67
2022-09-26T17:07:48.044Z,2.00
2022-09-26T17:12:53.230Z,1.98
2022-09-26T17:17:58.278Z,2.17
2022-09-26T17:23:27.716Z,2.90
2022-09-26T17:28:38.076Z,2.58
2022-09-26T17:33:43.691Z,2.70
2022-09-26T17:38:47.657Z,2.28
2022-09-26T17:44:00.363Z,2.10
2022-09-26T17:49:05.356Z,2.53
2022-09-26T17:59:23.274Z,2.78
2022-09-26T18:04:29.286Z,2.65
2022-09-26T18:09:36.969Z,2.50
2022-09-26T18:14:45.426Z,2.22
2022-09-26T18:19:50.665Z,2.38
2022-09-26T18:25:01.617Z,2.75
2022-09-26T18:30:09.194Z,2.38
2022-09-26T18:35:17.035Z,2.42
2022-09-26T18:40:21.236Z,2.20
2022-09-26T18:45:29.394Z,1.85
2022-09-26T18:50:36.782Z,2.35
2022-09-26T18:55:57.779Z,2.30
2022-09-26T19:01:07.339Z,2.30
2022-09-26T19:06:16.101Z,2.35
2022-09-26T19:11:24.822Z,2.80
2022-09-26T19:16:31.181Z,2.20
2022-09-26T19:21:38.553Z,3.25
2022-09-26T19:26:44.728Z,2.30
2022-09-26T19:31:53.755Z,2.13
2022-09-26T19:36:57.650Z,2.38
2022-09-26T19:42:02.730Z,1.92
2022-09-26T19:47:08.310Z,2.17
2022-09-26T19:52:17.232Z,1.75
2022-09-26T19:57:22.588Z,2.28
2022-09-26T20:02:34.062Z,2.00
2022-09-26T20:07:37.910Z,1.67
2022-09-26T20:12:41.631Z,2.08
2022-09-26T20:17:47.555Z,2.20
2022-09-26T20:22:53.711Z,1.80
2022-09-26T20:28:02.065Z,1.80
2022-09-26T20:33:07.271Z,2.15
2022-09-26T20:38:18.861Z,1.92
2022-09-26T20:43:31.356Z,1.80
2022-09-26T20:48:48.135Z,1.90
2022-09-26T20:53:52.323Z,1.77
2022-09-26T20:58:59.226Z,1.80
2022-09-26T21:09:16.476Z,1.70
2022-09-26T21:14:22.776Z,1.90
2022-09-26T21:19:30.357Z,1.70
2022-09-26T21:24:45.404Z,1.85
2022-09-26T21:29:49.188Z,1.58
2022-09-26T21:34:58.722Z,1.88
2022-09-26T21:40:03.205Z,1.80
2022-09-26T21:45:12.298Z,1.92
2022-09-26T21:50:17.303Z,2.20
2022-09-26T21:55:26.516Z,1.92
2022-09-26T22:00:30.228Z,1.90
2022-09-26T22:46:09.286Z,1.83
2022-09-26T22:51:16.255Z,1.90
2022-09-26T22:56:20.762Z,1.95
2022-09-26T23:01:29.722Z,1.98
2022-09-26T23:06:53.264Z,2.00
2022-09-26T23:11:57.392Z,1.80
2022-09-26T23:17:08.070Z,1.50
2022-09-26T23:22:12.242Z,2.00
2022-09-26T23:32:39.972Z,1.77
2022-09-26T23:37:45.886Z,2.08
2022-09-26T23:42:50.497Z,2.28
2022-09-26T23:47:56.803Z,1.80
2022-09-26T23:53:06.506Z,1.70
2022-09-26T23:58:10.839Z,2.10
